createdAt,value
2019-03-30T00:03:40.616Z,32.37
2019-03-30T00:07:45.629Z,32.23
2019-03-30T00:11:50.625Z,32.60
2019-03-30T00:15:55.620Z,30.63
2019-03-30T00:20:00.627Z,30.70
2019-03-30T00:24:05.638Z,32.00
2019-03-30T00:28:10.642Z,32.97
2019-03-30T00:32:15.654Z,29.93
2019-03-30T00:36:20.670Z,30.27
2019-03-30T00:40:25.669Z,31.73
2019-03-30T00:44:30.673Z,31.80
2019-03-30T00:48:35.653Z,31.57
2019-03-30T00:52:40.645Z,31.23
2019-03-30T00:56:45.641Z,31.60
2019-03-30T01:00:50.751Z,32.37
2019-03-30T01:04:55.751Z,34.13
2019-03-30T01:09:00.730Z,37.60
2019-03-30T01:13:07.721Z,35.40
2019-03-30T01:17:12.729Z,37.50
2019-03-30T01:21:17.898Z,35.73
2019-03-30T01:25:22.907Z,38.00
2019-03-30T01:29:27.902Z,37.87
2019-03-30T01:33:32.898Z,38.27
2019-03-30T01:37:37.910Z,36.77
2019-03-30T01:41:43.983Z,37.30
2019-03-30T01:45:49.071Z,36.50
2019-03-30T01:49:54.077Z,36.30
2019-03-30T01:54:00.048Z,34.40
2019-03-30T01:58:05.038Z,34.63
2019-03-30T02:02:10.137Z,35.67
2019-03-30T02:06:15.127Z,36.53
2019-03-30T02:10:39.868Z,35.13
2019-03-30T02:14:44.847Z,34.83
2019-03-30T02:18:50.089Z,36.73
2019-03-30T02:22:55.094Z,35.97
2019-03-30T02:27:00.237Z,36.70
2019-03-30T02:31:05.401Z,34.33
2019-03-30T02:35:11.464Z,35.50
2019-03-30T02:39:16.481Z,36.00
2019-03-30T02:43:21.486Z,34.53
2019-03-30T02:47:26.499Z,37.03
2019-03-30T02:51:31.540Z,37.73
2019-03-30T02:55:36.568Z,37.17
2019-03-30T02:59:41.555Z,36.93
2019-03-30T03:03:46.579Z,35.90
2019-03-30T03:07:51.584Z,38.57
2019-03-30T03:11:56.592Z,38.60
2019-03-30T03:16:01.607Z,38.53
2019-03-30T03:20:07.567Z,40.60
2019-03-30T03:24:12.580Z,38.80
2019-03-30T03:28:17.596Z,39.50
2019-03-30T03:32:22.610Z,40.37
2019-03-30T03:36:27.619Z,40.83
2019-03-30T03:40:32.654Z,42.73
2019-03-30T03:44:37.766Z,42.17
2019-03-30T03:48:42.781Z,42.20
2019-03-30T03:52:47.970Z,41.87
2019-03-30T03:56:53.724Z,40.57
2019-03-30T04:01:00.440Z,41.03
2019-03-30T04:05:07.763Z,38.57
2019-03-30T04:09:15.662Z,42.03
2019-03-30T04:13:23.071Z,41.03
2019-03-30T04:17:28.066Z,39.37
2019-03-30T04:21:43.561Z,39.40
2019-03-30T04:25:39.694Z,35.80
2019-03-30T04:29:44.690Z,37.73
2019-03-30T04:33:49.689Z,37.60
2019-03-30T04:37:54.694Z,37.37
2019-03-30T04:41:59.708Z,37.47
2019-03-30T04:46:04.691Z,38.80
2019-03-30T04:50:09.695Z,33.27
2019-03-30T04:54:14.690Z,39.37
2019-03-30T04:58:19.695Z,35.67
2019-03-30T05:02:24.697Z,34.77
2019-03-30T05:06:29.871Z,36.17
2019-03-30T05:10:35.069Z,34.63
2019-03-30T05:14:40.097Z,39.53
2019-03-30T05:18:45.114Z,38.57
2019-03-30T05:22:51.486Z,36.13
2019-03-30T05:26:56.490Z,32.10
2019-03-30T05:31:01.574Z,26.83
2019-03-30T05:35:07.219Z,23.50
2019-03-30T05:39:13.292Z,19.67
2019-03-30T05:43:18.309Z,13.10
2019-03-30T05:47:23.773Z,13.33
2019-03-30T05:51:29.065Z,13.23
2019-03-30T05:55:34.348Z,12.00
2019-03-30T05:59:39.642Z,11.67
2019-03-30T06:03:44.950Z,11.90
2019-03-30T06:07:50.334Z,11.10
2019-03-30T06:11:55.618Z,12.13
2019-03-30T06:16:00.899Z,11.37
2019-03-30T06:20:07.801Z,10.07
2019-03-30T06:24:13.078Z,10.83
2019-03-30T06:28:20.501Z,10.33
2019-03-30T06:32:25.783Z,10.07
2019-03-30T06:36:31.093Z,10.37
2019-03-30T06:40:36.566Z,9.43
2019-03-30T06:44:41.937Z,9.43
2019-03-30T06:48:47.293Z,10.30
2019-03-30T06:52:58.026Z,10.37
2019-03-30T06:56:59.679Z,9.33
2019-03-30T07:01:05.321Z,8.90
2019-03-30T07:05:10.846Z,10.07
2019-03-30T07:09:17.686Z,9.90
2019-03-30T07:13:24.114Z,11.07
2019-03-30T07:17:30.426Z,9.83
2019-03-30T07:21:35.677Z,9.27
2019-03-30T07:25:41.033Z,8.30
2019-03-30T07:29:46.330Z,8.97
2019-03-30T07:33:51.635Z,10.40
2019-03-30T07:37:56.911Z,8.60
2019-03-30T07:42:02.188Z,8.13
2019-03-30T07:46:08.710Z,8.00
2019-03-30T07:50:14.335Z,7.60
2019-03-30T07:54:19.682Z,7.83
2019-03-30T07:58:24.965Z,7.97
2019-03-30T08:02:30.501Z,8.20
2019-03-30T08:06:35.762Z,8.17
2019-03-30T08:10:42.107Z,8.13
2019-03-30T08:14:47.395Z,8.13
2019-03-30T08:18:52.739Z,7.73
2019-03-30T08:22:58.011Z,8.60
2019-03-30T08:27:03.422Z,8.30
2019-03-30T08:31:08.733Z,9.13
2019-03-30T08:35:14.099Z,8.87
2019-03-30T08:39:19.378Z,9.13
2019-03-30T08:43:24.652Z,9.17
2019-03-30T08:47:29.963Z,9.40
2019-03-30T08:51:35.242Z,9.57
2019-03-30T08:55:40.538Z,9.53
2019-03-30T08:59:45.833Z,9.37
2019-03-30T09:03:51.082Z,8.67
2019-03-30T09:07:56.366Z,8.93
2019-03-30T09:12:01.729Z,8.87
2019-03-30T09:16:07.038Z,8.67
2019-03-30T09:20:12.607Z,8.70
2019-03-30T09:24:17.989Z,9.10
2019-03-30T09:28:23.258Z,8.50
2019-03-30T09:32:28.539Z,9.07
2019-03-30T09:36:33.956Z,8.47
2019-03-30T09:40:39.415Z,8.83
2019-03-30T09:44:44.689Z,8.47
2019-03-30T09:48:49.954Z,7.90
2019-03-30T09:52:55.242Z,9.00
2019-03-30T09:57:00.520Z,8.93
2019-03-30T10:01:05.813Z,9.10
2019-03-30T10:05:11.338Z,9.37
2019-03-30T10:09:16.618Z,8.87
2019-03-30T10:13:22.360Z,8.03
2019-03-30T10:17:27.638Z,7.90
2019-03-30T10:21:32.930Z,7.80
2019-03-30T10:25:38.226Z,8.30
2019-03-30T10:29:43.514Z,7.20
2019-03-30T10:33:48.833Z,8.40
2019-03-30T10:37:54.114Z,8.40
2019-03-30T10:41:59.399Z,9.87
2019-03-30T10:46:04.683Z,8.63
2019-03-30T10:50:10.407Z,7.70
2019-03-30T10:54:15.670Z,8.33
2019-03-30T10:58:20.951Z,7.33
2019-03-30T11:02:26.232Z,7.57
2019-03-30T11:06:32.594Z,7.97
2019-03-30T11:10:37.880Z,7.77
2019-03-30T11:14:43.129Z,8.10
2019-03-30T11:18:48.418Z,8.10
2019-03-30T11:22:53.699Z,8.23
2019-03-30T11:26:58.978Z,8.57
2019-03-30T11:31:05.577Z,8.47
2019-03-30T11:35:11.070Z,8.47
2019-03-30T11:39:16.714Z,8.30
2019-03-30T11:43:21.999Z,8.67
2019-03-30T11:47:27.286Z,10.63
2019-03-30T11:51:32.571Z,9.60
2019-03-30T11:55:37.854Z,10.97
2019-03-30T11:59:43.197Z,9.00
2019-03-30T12:03:48.477Z,9.20
2019-03-30T12:07:53.751Z,9.63
2019-03-30T12:11:59.043Z,8.83
2019-03-30T12:16:04.341Z,11.33
2019-03-30T12:20:09.847Z,12.83
2019-03-30T12:24:15.157Z,10.03
2019-03-30T12:28:20.436Z,9.83
2019-03-30T12:32:25.786Z,10.63
2019-03-30T12:36:31.079Z,11.40
2019-03-30T12:40:36.352Z,10.23
2019-03-30T12:44:41.648Z,10.33
2019-03-30T12:48:46.979Z,11.07
2019-03-30T12:52:52.457Z,11.57
2019-03-30T12:56:57.892Z,10.13
2019-03-30T13:01:03.167Z,10.63
2019-03-30T13:05:08.445Z,9.63
2019-03-30T13:09:13.818Z,11.27
2019-03-30T13:13:19.114Z,10.57
2019-03-30T13:17:24.406Z,10.20
2019-03-30T13:21:32.358Z,11.17
2019-03-30T13:25:36.698Z,9.97
2019-03-30T13:29:41.991Z,11.10
2019-03-30T13:33:47.270Z,9.67
2019-03-30T13:37:52.645Z,9.90
2019-03-30T13:41:57.930Z,9.67
2019-03-30T13:46:03.234Z,11.00
2019-03-30T13:50:09.102Z,13.67
2019-03-30T13:54:14.461Z,11.07
2019-03-30T13:58:19.818Z,13.73
2019-03-30T14:02:25.828Z,11.63
2019-03-30T14:06:31.199Z,10.17
2019-03-30T14:10:38.956Z,12.20
2019-03-30T14:14:44.809Z,12.10
2019-03-30T14:18:50.231Z,9.90
2019-03-30T14:22:55.984Z,9.47
2019-03-30T14:27:01.549Z,10.03
2019-03-30T14:31:07.047Z,9.60
2019-03-30T14:35:12.427Z,10.00
2019-03-30T14:39:17.966Z,10.27
2019-03-30T14:43:23.588Z,9.47
2019-03-30T14:47:29.169Z,9.50
2019-03-30T14:51:35.253Z,11.40
2019-03-30T14:55:40.711Z,11.80
2019-03-30T14:59:47.496Z,12.27
2019-03-30T15:03:52.870Z,11.60
2019-03-30T15:07:58.691Z,11.77
2019-03-30T15:12:04.399Z,12.77
2019-03-30T15:16:10.119Z,11.37
2019-03-30T15:20:16.016Z,12.07
2019-03-30T15:24:21.598Z,11.83
2019-03-30T15:28:27.030Z,11.63
2019-03-30T15:32:33.277Z,12.43
2019-03-30T15:36:38.612Z,12.37
2019-03-30T15:40:44.082Z,12.57
2019-03-30T15:44:49.535Z,12.37
2019-03-30T15:48:55.411Z,14.80
2019-03-30T15:53:01.193Z,13.17
2019-03-30T15:57:14.325Z,13.63
2019-03-30T16:01:16.072Z,12.93
2019-03-30T16:05:21.778Z,11.87
2019-03-30T16:09:27.605Z,13.67
2019-03-30T16:13:33.490Z,13.17
2019-03-30T16:17:38.915Z,13.20
2019-03-30T16:21:44.203Z,15.00
2019-03-30T16:25:49.595Z,11.97
2019-03-30T16:29:58.338Z,12.43
2019-03-30T16:34:01.940Z,12.27
2019-03-30T16:38:07.294Z,11.40
2019-03-30T16:42:12.577Z,11.03
2019-03-30T16:46:17.875Z,11.37
2019-03-30T16:50:23.167Z,11.50
2019-03-30T16:54:28.492Z,10.97
2019-03-30T16:58:33.790Z,12.83
2019-03-30T17:02:39.091Z,11.97
2019-03-30T17:06:44.409Z,11.97
2019-03-30T17:10:49.765Z,11.67
2019-03-30T17:14:55.089Z,12.70
2019-03-30T17:19:00.779Z,12.30
2019-03-30T17:23:06.441Z,13.93
2019-03-30T17:27:12.830Z,13.67
2019-03-30T17:31:18.150Z,12.63
2019-03-30T17:35:23.449Z,14.33
2019-03-30T17:39:29.492Z,14.10
2019-03-30T17:43:35.060Z,14.13
2019-03-30T17:47:40.506Z,17.37
2019-03-30T17:51:45.973Z,15.77
2019-03-30T17:55:51.354Z,14.63
2019-03-30T17:59:56.710Z,15.17
2019-03-30T18:04:02.160Z,14.70
2019-03-30T18:08:08.110Z,15.57
2019-03-30T18:12:13.650Z,13.03
2019-03-30T18:16:22.206Z,13.37
2019-03-30T18:20:26.746Z,11.93
2019-03-30T18:24:32.454Z,13.33
2019-03-30T18:28:37.804Z,15.30
2019-03-30T18:32:43.441Z,14.10
2019-03-30T18:36:50.978Z,14.43
2019-03-30T18:40:56.267Z,10.90
2019-03-30T18:45:02.177Z,11.83
2019-03-30T18:49:08.670Z,11.20
2019-03-30T18:53:15.721Z,16.00
2019-03-30T18:57:23.093Z,12.70
2019-03-30T19:01:28.378Z,15.33
2019-03-30T19:05:34.812Z,16.80
2019-03-30T19:09:40.102Z,17.70
2019-03-30T19:13:45.390Z,17.73
2019-03-30T19:17:50.666Z,17.77
2019-03-30T19:21:56.025Z,18.93
2019-03-30T19:26:01.438Z,17.47
2019-03-30T19:30:11.022Z,17.80
2019-03-30T19:34:16.373Z,15.83
2019-03-30T19:38:21.653Z,16.57
2019-03-30T19:42:26.938Z,16.27
2019-03-30T19:46:33.282Z,16.23
2019-03-30T19:50:38.575Z,23.00
2019-03-30T19:54:43.897Z,21.00
2019-03-30T19:58:49.210Z,17.73
2019-03-30T20:02:54.501Z,20.53
2019-03-30T20:07:00.037Z,21.60
2019-03-30T20:11:05.658Z,19.83
2019-03-30T20:15:11.949Z,20.33
2019-03-30T20:19:17.425Z,19.13
2019-03-30T20:23:22.710Z,19.97
2019-03-30T20:27:28.058Z,20.67
2019-03-30T20:31:33.346Z,21.63
2019-03-30T20:35:38.617Z,22.60
2019-03-30T20:39:43.961Z,23.50
2019-03-30T20:43:48.960Z,23.00
2019-03-30T20:47:54.601Z,22.27
2019-03-30T20:52:00.023Z,21.00
2019-03-30T20:56:05.643Z,21.70
2019-03-30T21:00:12.116Z,22.03
2019-03-30T21:04:17.686Z,19.63
2019-03-30T21:08:23.522Z,18.50
2019-03-30T21:12:28.988Z,19.23
2019-03-30T21:16:33.984Z,20.17
2019-03-30T21:20:39.943Z,19.27
2019-03-30T21:24:45.235Z,20.60
2019-03-30T21:28:50.566Z,23.83
2019-03-30T21:32:56.065Z,23.27
2019-03-30T21:37:01.266Z,25.00
2019-03-30T21:41:07.077Z,22.37
2019-03-30T21:45:13.128Z,24.70
2019-03-30T21:49:18.336Z,22.33
2019-03-30T21:53:23.486Z,23.00
2019-03-30T21:57:28.754Z,23.10
2019-03-30T22:01:33.936Z,26.47
2019-03-30T22:05:39.458Z,26.00
2019-03-30T22:09:44.898Z,27.90
2019-03-30T22:13:50.003Z,28.30
2019-03-30T22:17:55.726Z,25.67
2019-03-30T22:22:00.729Z,27.77
2019-03-30T22:26:05.784Z,25.67
2019-03-30T22:30:23.922Z,25.47
2019-03-30T22:34:17.730Z,26.37
2019-03-30T22:38:22.721Z,24.23
2019-03-30T22:42:27.738Z,24.43
2019-03-30T22:46:32.738Z,25.40
2019-03-30T22:50:37.737Z,23.70
2019-03-30T22:54:43.711Z,23.17
2019-03-30T22:58:48.790Z,24.37
2019-03-30T23:02:53.794Z,21.60
2019-03-30T23:06:58.765Z,24.30
2019-03-30T23:11:03.830Z,21.57
2019-03-30T23:15:08.965Z,21.83
2019-03-30T23:19:13.972Z,22.43
2019-03-30T23:23:18.971Z,22.83
2019-03-30T23:27:23.965Z,21.07
2019-03-30T23:31:28.957Z,21.00
2019-03-30T23:35:33.951Z,21.60
2019-03-30T23:39:39.722Z,23.07
2019-03-30T23:43:44.651Z,21.03
2019-03-30T23:47:50.742Z,20.50
2019-03-30T23:51:55.749Z,21.83
2019-03-30T23:56:00.737Z,20.93
